createdAt,value
2024-03-05T00:00:29.150Z,0.00
2024-03-05T00:01:29.201Z,0.00
2024-03-05T00:02:29.099Z,0.00
2024-03-05T00:03:29.183Z,0.00
2024-03-05T00:04:29.105Z,0.00
2024-03-05T00:05:29.071Z,0.00
2024-03-05T00:06:29.083Z,0.00
2024-03-05T00:07:29.062Z,0.00
2024-03-05T00:08:29.060Z,0.00
2024-03-05T00:09:29.024Z,0.00
2024-03-05T00:10:29.092Z,0.00
2024-03-05T00:11:29.086Z,0.00
2024-03-05T00:12:28.987Z,0.00
2024-03-05T00:13:29.059Z,0.00
2024-03-05T00:14:28.970Z,0.00
2024-03-05T00:15:28.989Z,0.00
2024-03-05T00:16:29.056Z,0.00
2024-03-05T00:17:28.965Z,0.00
2024-03-05T00:18:28.958Z,0.00
2024-03-05T00:19:28.973Z,0.00
2024-03-05T00:20:28.925Z,0.00
2024-03-05T00:21:28.906Z,0.00
2024-03-05T00:22:28.937Z,0.00
2024-03-05T00:23:28.897Z,0.00
2024-03-05T00:24:28.891Z,0.00
2024-03-05T00:25:28.888Z,0.00
2024-03-05T00:26:28.843Z,0.00
2024-03-05T00:27:28.857Z,0.00
2024-03-05T00:28:28.877Z,0.00
2024-03-05T00:29:28.856Z,0.00
2024-03-05T00:30:28.815Z,0.00
2024-03-05T00:31:28.813Z,0.00
2024-03-05T00:32:28.798Z,0.00
2024-03-05T00:33:28.784Z,0.00
2024-03-05T00:34:28.809Z,0.00
2024-03-05T00:35:28.754Z,0.00
2024-03-05T00:36:28.758Z,0.00
2024-03-05T00:37:28.778Z,0.00
2024-03-05T00:38:33.625Z,0.00
2024-03-05T00:39:28.719Z,0.00
2024-03-05T00:40:28.742Z,0.00
2024-03-05T00:41:28.706Z,0.00
2024-03-05T00:42:28.703Z,0.00
2024-03-05T00:43:28.740Z,0.00
2024-03-05T00:44:28.663Z,0.00
2024-03-05T00:45:28.650Z,0.00
2024-03-05T00:46:28.671Z,0.00
2024-03-05T00:47:28.684Z,0.00
2024-03-05T00:48:28.615Z,0.00
2024-03-05T00:49:28.716Z,0.00
2024-03-05T00:50:28.605Z,0.00
2024-03-05T00:51:28.602Z,0.00
2024-03-05T00:52:28.663Z,0.00
2024-03-05T00:53:28.595Z,0.00
2024-03-05T00:54:28.546Z,0.00
2024-03-05T00:55:28.641Z,0.00
2024-03-05T00:56:28.526Z,0.00
2024-03-05T00:57:28.666Z,0.00
2024-03-05T00:58:28.554Z,0.00
2024-03-05T00:59:28.534Z,0.00
2024-03-05T01:00:28.479Z,0.00
2024-03-05T01:01:28.709Z,0.00
2024-03-05T01:02:28.561Z,0.00
2024-03-05T01:03:28.479Z,0.00
2024-03-05T01:04:28.479Z,0.00
2024-03-05T01:05:28.475Z,0.00
2024-03-05T01:06:28.470Z,0.00
2024-03-05T01:07:28.543Z,0.00
2024-03-05T01:08:28.480Z,0.00
2024-03-05T01:09:28.454Z,0.00
2024-03-05T01:10:28.429Z,0.00
2024-03-05T01:11:28.475Z,0.00
2024-03-05T01:12:28.366Z,0.00
2024-03-05T01:13:28.471Z,0.00
2024-03-05T01:14:28.336Z,0.00
2024-03-05T01:15:28.455Z,0.00
2024-03-05T01:16:28.401Z,0.00
2024-03-05T01:17:28.372Z,0.00
2024-03-05T01:18:28.313Z,0.00
2024-03-05T01:19:28.296Z,0.00
2024-03-05T01:20:28.269Z,0.00
2024-03-05T01:21:28.294Z,0.00
2024-03-05T01:22:28.340Z,0.00
2024-03-05T01:23:28.250Z,0.00
2024-03-05T01:24:28.253Z,0.00
2024-03-05T01:25:28.243Z,0.00
2024-03-05T01:26:28.222Z,0.00
2024-03-05T01:27:28.250Z,0.00
2024-03-05T01:28:28.321Z,0.00
2024-03-05T01:29:28.181Z,0.00
2024-03-05T02:50:12.805Z,0.00
2024-03-05T02:51:13.582Z,0.00
2024-03-05T02:52:13.593Z,0.00
2024-03-05T02:53:13.544Z,0.00
2024-03-05T02:54:13.561Z,0.00
2024-03-05T02:55:13.617Z,0.00
2024-03-05T02:56:13.522Z,0.00
2024-03-05T02:57:13.522Z,0.00
2024-03-05T02:58:13.533Z,0.00
2024-03-05T02:59:13.494Z,0.00
2024-03-05T03:00:13.504Z,0.00
2024-03-05T03:01:13.606Z,0.00
2024-03-05T03:02:13.489Z,0.00
2024-03-05T03:03:13.452Z,0.00
2024-03-05T03:04:13.508Z,0.00
2024-03-05T03:05:13.428Z,0.00
2024-03-05T03:06:13.432Z,0.00
2024-03-05T03:07:13.462Z,0.00
2024-03-05T03:08:13.442Z,0.00
2024-03-05T03:09:13.376Z,0.00
2024-03-05T03:10:13.504Z,0.00
2024-03-05T03:11:13.431Z,0.00
2024-03-05T03:12:13.354Z,0.00
2024-03-05T03:13:13.378Z,0.00
2024-03-05T03:14:13.348Z,0.00
2024-03-05T03:15:13.339Z,0.00
2024-03-05T03:16:13.298Z,0.00
2024-03-05T03:17:13.317Z,0.00
2024-03-05T03:18:13.387Z,0.00
2024-03-05T03:19:13.698Z,0.00
2024-03-05T03:20:13.274Z,0.00
2024-03-05T03:21:13.261Z,0.00
2024-03-05T03:22:13.325Z,0.00
2024-03-05T03:23:13.254Z,0.00
2024-03-05T03:24:13.218Z,0.00
2024-03-05T03:25:13.304Z,0.00
2024-03-05T03:26:13.280Z,0.00
2024-03-05T03:27:13.181Z,0.00
2024-03-05T03:28:13.237Z,0.00
2024-03-05T03:29:13.178Z,0.00
2024-03-05T03:30:13.216Z,0.00
2024-03-05T03:31:13.231Z,0.00
2024-03-05T03:32:13.140Z,0.00
2024-03-05T03:33:13.186Z,0.00
2024-03-05T03:34:13.162Z,0.00
2024-03-05T03:35:13.112Z,0.00
2024-03-05T03:36:13.180Z,0.00
2024-03-05T03:37:13.105Z,0.00
2024-03-05T03:38:13.076Z,0.00
2024-03-05T03:39:13.075Z,0.00
2024-03-05T03:40:13.196Z,0.00
2024-03-05T03:41:13.052Z,0.00
2024-03-05T03:42:13.060Z,0.00
2024-03-05T03:43:13.073Z,0.00
2024-03-05T03:44:13.023Z,0.00
2024-03-05T03:45:13.017Z,0.00
2024-03-05T03:46:13.034Z,0.00
2024-03-05T03:47:13.037Z,0.00
2024-03-05T03:48:13.009Z,0.00
2024-03-05T03:49:12.966Z,0.00
2024-03-05T03:50:12.972Z,0.00
2024-03-05T03:51:12.948Z,0.00
2024-03-05T03:52:12.940Z,0.00
2024-03-05T03:53:12.944Z,0.00
2024-03-05T03:54:12.941Z,0.00
2024-03-05T03:55:12.943Z,0.00
2024-03-05T03:56:12.894Z,0.00
2024-03-05T03:57:12.894Z,0.00
2024-03-05T03:58:12.908Z,0.00
2024-03-05T03:59:12.879Z,0.00
2024-03-05T04:00:12.839Z,0.00
2024-03-05T04:01:12.881Z,0.00
2024-03-05T04:02:12.846Z,0.00
2024-03-05T04:03:12.855Z,0.00
2024-03-05T04:04:12.825Z,0.00
2024-03-05T04:05:12.817Z,0.00
2024-03-05T04:06:12.825Z,0.00
2024-03-05T04:07:12.786Z,0.00
2024-03-05T04:08:12.820Z,0.00
2024-03-05T04:09:12.749Z,0.00
2024-03-05T04:10:12.794Z,0.00
2024-03-05T04:11:12.855Z,0.00
2024-03-05T04:12:12.731Z,0.00
2024-03-05T04:13:12.725Z,0.00
2024-03-05T04:14:12.706Z,0.00
2024-03-05T04:15:12.698Z,0.00
2024-03-05T04:16:12.741Z,0.00
2024-03-05T04:17:12.673Z,0.00
2024-03-05T04:18:12.770Z,0.00
2024-03-05T04:19:12.668Z,0.00
2024-03-05T04:20:12.656Z,0.00
2024-03-05T04:21:12.650Z,0.00
2024-03-05T04:22:12.639Z,0.00
2024-03-05T04:23:12.621Z,0.00
2024-03-05T04:24:12.608Z,0.00
2024-03-05T04:25:12.596Z,0.00
2024-03-05T04:26:12.612Z,0.00
2024-03-05T04:27:12.568Z,0.00
2024-03-05T04:28:12.587Z,0.00
2024-03-05T04:29:12.555Z,0.00
2024-03-05T04:30:12.545Z,0.00
2024-03-05T04:31:12.523Z,0.00
2024-03-05T04:32:12.532Z,0.00
2024-03-05T04:33:12.639Z,0.00
2024-03-05T04:34:12.486Z,0.00
2024-03-05T04:35:12.618Z,0.00
2024-03-05T04:36:12.465Z,0.00
2024-03-05T04:37:12.480Z,0.00
2024-03-05T04:38:12.455Z,0.00
2024-03-05T04:39:12.463Z,0.00
2024-03-05T04:40:12.453Z,0.00
2024-03-05T04:41:12.428Z,0.00
2024-03-05T04:42:12.477Z,0.00
2024-03-05T04:43:12.457Z,0.00
2024-03-05T04:44:12.387Z,0.00
2024-03-05T04:45:12.382Z,0.00
2024-03-05T04:46:12.381Z,0.00
2024-03-05T04:47:12.353Z,0.00
2024-03-05T04:48:12.419Z,0.00
2024-03-05T04:51:40.583Z,0.00
2024-03-05T04:52:41.548Z,0.00
2024-03-05T04:53:41.556Z,0.00
2024-03-05T04:54:41.507Z,0.00
2024-03-05T04:55:41.527Z,0.00
2024-03-05T04:56:41.578Z,0.00
2024-03-05T04:57:41.469Z,0.00
2024-03-05T04:58:41.497Z,0.00
2024-03-05T04:59:41.443Z,0.00
2024-03-05T05:00:41.505Z,0.00
2024-03-05T05:01:41.650Z,0.00
2024-03-05T05:02:41.448Z,0.00
2024-03-05T05:03:41.420Z,0.00
2024-03-05T05:04:41.446Z,0.00
2024-03-05T05:05:41.422Z,0.00
2024-03-05T05:06:41.394Z,0.00
2024-03-05T05:07:41.416Z,0.00
2024-03-05T05:08:41.361Z,0.00
2024-03-05T05:09:41.375Z,0.00
2024-03-05T05:10:41.405Z,0.00
2024-03-05T05:11:41.370Z,0.00
2024-03-05T05:12:41.328Z,0.00
2024-03-05T05:13:42.972Z,0.00
2024-03-05T05:14:41.269Z,1.00
2024-03-05T05:15:41.223Z,1.00
2024-03-05T05:16:41.293Z,1.00
2024-03-05T05:17:41.282Z,1.00
2024-03-05T05:18:41.209Z,1.00
2024-03-05T05:19:41.260Z,0.00
2024-03-05T05:20:41.221Z,0.00
2024-03-05T05:21:41.170Z,2.00
2024-03-05T05:22:41.294Z,1.00
2024-03-05T05:23:41.206Z,0.00
2024-03-05T05:24:41.159Z,1.00
2024-03-05T05:25:41.133Z,1.00
2024-03-05T05:26:41.115Z,4.00
2024-03-05T05:27:41.089Z,7.00
2024-03-05T05:28:41.129Z,5.00
2024-03-05T05:29:42.745Z,7.00
2024-03-05T05:30:41.079Z,14.00
2024-03-05T05:31:41.082Z,12.00
2024-03-05T05:32:41.504Z,16.00
2024-03-05T05:33:41.057Z,17.00
2024-03-05T05:34:41.098Z,21.00
2024-03-05T05:35:41.024Z,26.00
2024-03-05T05:36:41.027Z,29.00
2024-03-05T05:37:41.029Z,37.00
2024-03-05T05:38:41.032Z,38.00
2024-03-05T05:39:40.959Z,45.00
2024-03-05T05:40:41.098Z,44.00
2024-03-05T05:41:40.983Z,46.00
2024-03-05T05:42:40.931Z,56.00
2024-03-05T05:43:40.970Z,56.00
2024-03-05T05:44:40.928Z,53.00
2024-03-05T05:45:40.916Z,53.00
2024-03-05T05:46:41.061Z,62.00
2024-03-05T05:47:40.974Z,70.00
2024-03-05T05:48:40.993Z,76.00
2024-03-05T05:49:40.896Z,86.00
2024-03-05T05:50:40.901Z,93.00
2024-03-05T05:51:40.840Z,106.00
2024-03-05T05:52:40.876Z,109.00
2024-03-05T05:53:40.829Z,114.00
2024-03-05T05:54:40.835Z,116.00
2024-03-05T05:55:40.827Z,117.00
2024-03-05T05:56:40.811Z,121.00
2024-03-05T05:57:40.791Z,119.00
2024-03-05T05:58:40.807Z,116.00
2024-03-05T05:59:40.759Z,117.00
2024-03-05T06:00:40.836Z,110.00
2024-03-05T06:01:40.808Z,111.00
2024-03-05T06:02:40.738Z,119.00
2024-03-05T06:03:40.723Z,129.00
2024-03-05T06:04:40.723Z,140.00
2024-03-05T06:05:40.726Z,152.00
2024-03-05T06:06:40.727Z,168.00
2024-03-05T06:07:41.550Z,189.00
2024-03-05T06:08:40.691Z,199.00
2024-03-05T06:09:40.688Z,211.00
2024-03-05T06:10:40.903Z,212.00
2024-03-05T06:11:40.818Z,237.00
2024-03-05T06:12:40.636Z,265.00
2024-03-05T06:13:40.656Z,296.00
2024-03-05T06:14:40.622Z,332.00
2024-03-05T06:15:40.600Z,373.00
2024-03-05T06:16:40.589Z,392.00
2024-03-05T06:17:40.623Z,414.00
2024-03-05T06:18:40.625Z,445.00
2024-03-05T06:19:40.651Z,478.00
2024-03-05T06:20:40.543Z,522.00
2024-03-05T06:21:40.548Z,555.00
2024-03-05T06:22:40.553Z,585.00
2024-03-05T06:23:40.524Z,623.00
2024-03-05T06:24:40.617Z,658.00
2024-03-05T06:25:40.511Z,678.00
2024-03-05T06:26:40.490Z,729.00
2024-03-05T06:27:40.467Z,759.00
2024-03-05T06:28:40.477Z,820.00
2024-03-05T06:29:40.459Z,897.00
2024-03-05T06:30:40.454Z,978.00
2024-03-05T06:31:40.489Z,1048.00
2024-03-05T06:32:40.467Z,1123.00
2024-03-05T06:33:40.487Z,1166.00
2024-03-05T06:34:40.426Z,1191.00
2024-03-05T06:35:40.407Z,1268.00
2024-03-05T06:36:40.412Z,1296.00
2024-03-05T06:37:40.392Z,1304.00
2024-03-05T06:38:40.351Z,1305.00
2024-03-05T06:39:40.343Z,1290.00
2024-03-05T06:40:40.454Z,1307.00
2024-03-05T06:41:40.337Z,1322.00
2024-03-05T06:42:40.341Z,1351.00
2024-03-05T06:43:40.346Z,1376.00
2024-03-05T06:44:40.336Z,1408.00
2024-03-05T06:45:40.292Z,1439.00
2024-03-05T06:46:40.304Z,1457.00
2024-03-05T06:47:40.349Z,1490.00
2024-03-05T06:48:40.302Z,1499.00
2024-03-05T06:49:40.262Z,1552.00
2024-03-05T06:50:40.294Z,1564.00
2024-03-05T06:51:40.227Z,1582.00
2024-03-05T06:52:40.227Z,1626.00
2024-03-05T06:53:40.205Z,1657.00
2024-03-05T06:54:40.174Z,1687.00
2024-03-05T06:55:40.219Z,1714.00
2024-03-05T06:56:40.183Z,1748.00
2024-03-05T06:57:40.160Z,1757.00
2024-03-05T06:58:40.225Z,1779.00
2024-03-05T06:59:40.164Z,1808.00
2024-03-05T07:00:41.859Z,1824.00
2024-03-05T07:01:40.353Z,1857.00
2024-03-05T07:02:40.117Z,1877.00
2024-03-05T07:03:40.120Z,1897.00
2024-03-05T07:04:40.234Z,1913.00
2024-03-05T07:05:40.063Z,1937.00
2024-03-05T07:06:40.069Z,1968.00
2024-03-05T07:07:40.171Z,1986.00
2024-03-05T07:08:40.040Z,2008.00
2024-03-05T07:09:40.047Z,2029.00
2024-03-05T07:10:40.247Z,2044.00
2024-03-05T07:11:40.079Z,2062.00
2024-03-05T07:14:41.453Z,2197.00
2024-03-05T07:15:42.454Z,2183.00
2024-03-05T07:16:42.484Z,2211.00
2024-03-05T07:17:42.428Z,2242.00
2024-03-05T07:18:42.393Z,2256.00
2024-03-05T07:19:42.391Z,2273.00
2024-03-05T07:20:42.403Z,2284.00
2024-03-05T07:21:42.383Z,2285.00
2024-03-05T07:22:42.391Z,2293.00
2024-03-05T07:23:42.338Z,2288.00
2024-03-05T07:24:42.375Z,2294.00
2024-03-05T07:25:42.341Z,2290.00
2024-03-05T07:26:49.769Z,2300.00
2024-03-05T07:27:42.279Z,2312.00
2024-03-05T07:28:42.349Z,2334.00
2024-03-05T07:29:42.263Z,2344.00
2024-03-05T07:30:43.039Z,2351.00
2024-03-05T07:31:42.326Z,2355.00
2024-03-05T07:32:42.240Z,2372.00
2024-03-05T07:33:42.239Z,2389.00
2024-03-05T07:34:42.278Z,2406.00
2024-03-05T07:35:42.214Z,2420.00
2024-03-05T07:36:42.244Z,2425.00
2024-03-05T07:37:42.207Z,2431.00
2024-03-05T07:38:42.189Z,2439.00
2024-03-05T07:39:42.160Z,2458.00
2024-03-05T07:40:42.186Z,2481.00
2024-03-05T07:41:42.156Z,2497.00
2024-03-05T07:42:42.223Z,2487.00
2024-03-05T07:43:42.139Z,2495.00
2024-03-05T07:44:42.114Z,2493.00
2024-03-05T07:45:42.137Z,2516.00
2024-03-05T07:46:42.094Z,2530.00
2024-03-05T07:47:42.086Z,2540.00
2024-03-05T07:48:42.082Z,2550.00
2024-03-05T07:49:42.078Z,2546.00
2024-03-05T07:50:42.056Z,2552.00
2024-03-05T07:51:45.352Z,2570.00
2024-03-05T07:52:42.049Z,2582.00
2024-03-05T07:53:42.781Z,2595.00
2024-03-05T07:54:42.019Z,2603.00
2024-03-05T07:55:46.604Z,2618.00
2024-03-05T07:56:42.027Z,2611.00
2024-03-05T07:57:42.002Z,2606.00
2024-03-05T07:58:42.263Z,2629.00
2024-03-05T08:02:31.685Z,2673.00
2024-03-05T08:03:32.607Z,2669.00
2024-03-05T08:04:32.643Z,2690.00
2024-03-05T08:05:32.723Z,2682.00
2024-03-05T08:06:32.697Z,2682.00
2024-03-05T08:07:32.683Z,2696.00
2024-03-05T08:08:32.569Z,2704.00
2024-03-05T08:09:32.637Z,2706.00
2024-03-05T08:10:32.667Z,2715.00
2024-03-05T08:11:32.769Z,2711.00
2024-03-05T08:12:32.661Z,2714.00
2024-03-05T08:13:32.634Z,2732.00
2024-03-05T08:14:32.500Z,2735.00
2024-03-05T08:15:32.470Z,2733.00
2024-03-05T08:16:32.525Z,2721.00
2024-03-05T08:17:32.497Z,2730.00
2024-03-05T08:18:32.447Z,2743.00
2024-03-05T08:19:34.056Z,2742.00
2024-03-05T08:20:32.432Z,2750.00
2024-03-05T08:21:32.434Z,2768.00
2024-03-05T08:22:32.488Z,2768.00
2024-03-05T08:23:32.398Z,2772.00
2024-03-05T08:24:32.365Z,2777.00
2024-03-05T08:25:32.417Z,2780.00
2024-03-05T08:26:32.362Z,2800.00
2024-03-05T08:27:32.372Z,2794.00
2024-03-05T08:28:32.397Z,2798.00
2024-03-05T08:29:32.336Z,2784.00
2024-03-05T08:30:32.348Z,2806.00
2024-03-05T08:31:32.322Z,2800.00
2024-03-05T08:32:32.315Z,2799.00
2024-03-05T08:33:32.309Z,2801.00
2024-03-05T08:34:32.314Z,2808.00
2024-03-05T08:35:32.364Z,2812.00
2024-03-05T08:36:32.275Z,2798.00
2024-03-05T08:37:32.302Z,2797.00
2024-03-05T08:38:32.268Z,2799.00
2024-03-05T08:39:32.261Z,2799.00
2024-03-05T08:40:32.236Z,2819.00
2024-03-05T08:41:32.262Z,2829.00
2024-03-05T08:42:32.202Z,2832.00
2024-03-05T08:43:32.217Z,2829.00
2024-03-05T08:44:32.228Z,2809.00
2024-03-05T08:45:32.389Z,2831.00
2024-03-05T08:46:32.196Z,2819.00
2024-03-05T08:47:32.252Z,2817.00
2024-03-05T08:48:32.152Z,2823.00
2024-03-05T08:49:32.115Z,2822.00
2024-03-05T08:50:32.154Z,2876.00
2024-03-05T08:51:32.149Z,2886.00
2024-03-05T08:52:32.090Z,2871.00
2024-03-05T08:53:32.072Z,2859.00
2024-03-05T08:54:32.060Z,2869.00
2024-03-05T08:55:32.155Z,2875.00
2024-03-05T08:56:32.024Z,2863.00
2024-03-05T08:57:32.006Z,2864.00
2024-03-05T08:58:32.093Z,2871.00
2024-03-05T08:59:32.064Z,2857.00
2024-03-05T09:00:41.240Z,2871.00
2024-03-05T09:01:32.058Z,2872.00
2024-03-05T09:02:32.085Z,2878.00
2024-03-05T09:03:32.043Z,2872.00
2024-03-05T09:04:32.119Z,2859.00
2024-03-05T09:05:32.050Z,2846.00
2024-03-05T09:06:31.964Z,2841.00
2024-03-05T09:07:32.045Z,2845.00
2024-03-05T09:08:31.893Z,2851.00
2024-03-05T09:09:31.884Z,2857.00
2024-03-05T09:10:31.900Z,2791.00
2024-03-05T09:11:31.904Z,2763.00
2024-03-05T09:12:31.843Z,2835.00
2024-03-05T09:13:31.874Z,2822.00
2024-03-05T09:14:31.822Z,2822.00
2024-03-05T09:15:31.895Z,2703.00
2024-03-05T09:16:31.832Z,2620.00
2024-03-05T09:17:31.803Z,2832.00
2024-03-05T09:18:31.783Z,2861.00
2024-03-05T09:19:31.806Z,2868.00
2024-03-05T09:20:31.772Z,2856.00
2024-03-05T09:21:31.835Z,2871.00
2024-03-05T09:22:31.776Z,2876.00
2024-03-05T09:23:31.754Z,2877.00
2024-03-05T09:24:31.727Z,2861.00
2024-03-05T09:25:31.758Z,2847.00
2024-03-05T09:26:31.711Z,2847.00
2024-03-05T09:27:31.672Z,2844.00
2024-03-05T09:28:31.722Z,2844.00
2024-03-05T09:29:31.785Z,2850.00
2024-03-05T09:30:31.699Z,2865.00
2024-03-05T09:31:31.662Z,2871.00
2024-03-05T09:32:31.662Z,2877.00
2024-03-05T09:33:31.721Z,2875.00
2024-03-05T09:34:31.677Z,2871.00
2024-03-05T09:35:31.744Z,2868.00
2024-03-05T09:36:34.380Z,2881.00
2024-03-05T09:37:31.617Z,2878.00
2024-03-05T09:38:31.594Z,2846.00
2024-03-05T09:39:31.603Z,2781.00
2024-03-05T09:40:31.667Z,2867.00
2024-03-05T09:41:31.577Z,2913.00
2024-03-05T09:42:31.538Z,2850.00
2024-03-05T09:43:31.560Z,2952.00
2024-03-05T09:44:31.486Z,2994.00
2024-03-05T09:45:31.522Z,2961.00
2024-03-05T09:46:31.534Z,2978.00
2024-03-05T09:47:31.478Z,2975.00
2024-03-05T09:48:31.514Z,2955.00
2024-03-05T09:49:31.497Z,2943.00
2024-03-05T09:50:31.503Z,2958.00
2024-03-05T09:51:31.434Z,2897.00
2024-03-05T09:52:31.543Z,2973.00
2024-03-05T09:53:31.459Z,3127.00
2024-03-05T09:54:31.454Z,3019.00
2024-03-05T09:55:33.278Z,2888.00
2024-03-05T09:56:34.667Z,2921.00
2024-03-05T09:57:31.370Z,3173.00
2024-03-05T09:58:31.418Z,3051.00
2024-03-05T09:59:31.344Z,3188.00
2024-03-05T10:00:31.361Z,3238.00
2024-03-05T10:01:31.361Z,3052.00
2024-03-05T10:02:31.350Z,2799.00
2024-03-05T10:03:31.344Z,2952.00
2024-03-05T10:04:31.326Z,3401.00
2024-03-05T10:05:31.380Z,3590.00
2024-03-05T10:06:31.313Z,3275.00
2024-03-05T10:07:31.320Z,3040.00
2024-03-05T10:08:31.241Z,3051.00
2024-03-05T10:09:31.258Z,3065.00
2024-03-05T10:10:31.299Z,3430.00
2024-03-05T10:11:31.282Z,3684.00
2024-03-05T10:12:31.204Z,3387.00
2024-03-05T10:13:31.235Z,2903.00
2024-03-05T10:14:31.183Z,2785.00
2024-03-05T10:15:31.228Z,3122.00
2024-03-05T10:16:31.171Z,3102.00
2024-03-05T10:17:31.151Z,3644.00
2024-03-05T10:18:31.142Z,4141.00
2024-03-05T10:19:31.155Z,4203.00
2024-03-05T10:20:31.158Z,4392.00
2024-03-05T10:21:31.136Z,4432.00
2024-03-05T10:22:31.167Z,4224.00
2024-03-05T10:23:31.133Z,4387.00
2024-03-05T10:24:31.134Z,4947.00
2024-03-05T10:25:31.216Z,4874.00
2024-03-05T10:26:31.085Z,4503.00
2024-03-05T10:27:31.087Z,4314.00
2024-03-05T10:28:31.131Z,4426.00
2024-03-05T10:29:31.067Z,3980.00
2024-03-05T10:30:32.857Z,3418.00
2024-03-05T10:31:31.061Z,3087.00
2024-03-05T10:32:31.008Z,3128.00
2024-03-05T10:33:31.062Z,3195.00
2024-03-05T10:34:31.047Z,3781.00
2024-03-05T10:35:31.046Z,4856.00
2024-03-05T10:36:30.987Z,4843.00
2024-03-05T10:37:31.032Z,4237.00
2024-03-05T10:38:31.051Z,4273.00
2024-03-05T10:39:30.926Z,3981.00
2024-03-05T10:40:30.950Z,3355.00
2024-03-05T10:41:39.196Z,3380.00
2024-03-05T10:42:30.892Z,3415.00
2024-03-05T10:43:30.943Z,3750.00
2024-03-05T10:44:30.873Z,4200.00
2024-03-05T10:45:30.869Z,4247.00
2024-03-05T10:46:30.880Z,3921.00
2024-03-05T10:47:30.875Z,3622.00
2024-03-05T10:48:30.838Z,3365.00
2024-03-05T10:49:30.845Z,3280.00
2024-03-05T10:50:30.793Z,3359.00
2024-03-05T10:51:30.824Z,3512.00
2024-03-05T10:52:30.823Z,3929.00
2024-03-05T10:53:30.789Z,3997.00
2024-03-05T10:54:30.790Z,3645.00
2024-03-05T10:55:30.772Z,3109.00
2024-03-05T10:56:37.262Z,3281.00
2024-03-05T10:57:30.751Z,3119.00
2024-03-05T10:58:30.737Z,2889.00
2024-03-05T10:59:30.742Z,2694.00
2024-03-05T11:00:30.712Z,2650.00
2024-03-05T11:01:30.758Z,2998.00
2024-03-05T11:02:30.739Z,2929.00
2024-03-05T11:03:30.659Z,2979.00
2024-03-05T11:04:30.696Z,2885.00
2024-03-05T11:05:30.682Z,2655.00
2024-03-05T11:06:30.653Z,3131.00
2024-03-05T11:07:30.653Z,3138.00
2024-03-05T11:08:30.654Z,3131.00
2024-03-05T11:09:30.617Z,3054.00
2024-03-05T11:10:30.629Z,3010.00
2024-03-05T11:11:30.689Z,3009.00
2024-03-05T11:12:30.568Z,3102.00
2024-03-05T11:13:30.601Z,3386.00
2024-03-05T11:14:30.570Z,3779.00
2024-03-05T11:17:35.075Z,3482.00
2024-03-05T11:18:36.014Z,3569.00
2024-03-05T11:19:36.097Z,3346.00
2024-03-05T11:20:35.982Z,3298.00
2024-03-05T11:21:36.038Z,3244.00
2024-03-05T11:22:35.983Z,3184.00
2024-03-05T11:23:35.990Z,3846.00
2024-03-05T11:24:35.951Z,4408.00
2024-03-05T11:25:42.627Z,4229.00
2024-03-05T11:26:35.988Z,4063.00
2024-03-05T11:27:35.937Z,3802.00
2024-03-05T11:28:35.911Z,3678.00
2024-03-05T11:29:35.907Z,3947.00
2024-03-05T11:30:35.918Z,3892.00
2024-03-05T11:31:35.869Z,3721.00
2024-03-05T11:32:36.063Z,4022.00
2024-03-05T11:33:35.835Z,3764.00
2024-03-05T11:34:35.886Z,3434.00
2024-03-05T11:35:35.820Z,3278.00
2024-03-05T11:36:35.833Z,3234.00
2024-03-05T11:37:35.840Z,3453.00
2024-03-05T11:38:35.941Z,3699.00
2024-03-05T11:39:35.762Z,3711.00
2024-03-05T11:40:35.851Z,3963.00
2024-03-05T11:41:35.802Z,4198.00
2024-03-05T11:42:35.740Z,4094.00
2024-03-05T11:43:35.744Z,3930.00
2024-03-05T11:44:35.771Z,3594.00
2024-03-05T11:45:35.779Z,3542.00
2024-03-05T11:46:35.834Z,3665.00
2024-03-05T11:47:35.783Z,3304.00
2024-03-05T11:48:35.699Z,3756.00
2024-03-05T11:49:35.738Z,3689.00
2024-03-05T11:50:35.659Z,4244.00
2024-03-05T11:51:35.697Z,4372.00
2024-03-05T11:52:35.691Z,4269.00
2024-03-05T11:53:35.645Z,4071.00
2024-03-05T11:54:35.654Z,4172.00
2024-03-05T11:55:35.685Z,4287.00
2024-03-05T11:56:35.622Z,4067.00
2024-03-05T11:57:35.651Z,3955.00
2024-03-05T11:58:35.585Z,4502.00
2024-03-05T11:59:35.645Z,4353.00
2024-03-05T12:00:35.566Z,4376.00
2024-03-05T12:01:35.619Z,4565.00
2024-03-05T12:02:35.606Z,4662.00
2024-03-05T12:03:35.509Z,4868.00
2024-03-05T12:04:35.568Z,4940.00
2024-03-05T12:05:35.539Z,5037.00
2024-03-05T12:06:35.497Z,5239.00
2024-03-05T12:07:35.504Z,5644.00
2024-03-05T12:08:35.493Z,5961.00
2024-03-05T12:09:35.444Z,5807.00
2024-03-05T12:10:35.506Z,5618.00
2024-03-05T12:11:35.546Z,5671.00
2024-03-05T12:12:35.459Z,5561.00
2024-03-05T12:13:35.470Z,5253.00
2024-03-05T12:14:35.428Z,5046.00
2024-03-05T12:15:35.398Z,4936.00
2024-03-05T12:16:35.479Z,4804.00
2024-03-05T12:17:35.437Z,4458.00
2024-03-05T12:18:35.358Z,4257.00
2024-03-05T12:19:35.357Z,3989.00
2024-03-05T12:20:35.383Z,3836.00
2024-03-05T12:21:35.333Z,3666.00
2024-03-05T12:22:35.342Z,3552.00
2024-03-05T12:23:41.712Z,3388.00
2024-03-05T12:24:35.362Z,3204.00
2024-03-05T12:25:35.297Z,3105.00
2024-03-05T12:26:35.312Z,3056.00
2024-03-05T12:27:35.270Z,3177.00
2024-03-05T12:28:35.368Z,3250.00
2024-03-05T12:29:35.343Z,3305.00
2024-03-05T12:30:35.227Z,3304.00
2024-03-05T12:31:35.250Z,3281.00
2024-03-05T12:32:35.299Z,3266.00
2024-03-05T12:33:35.202Z,3265.00
2024-03-05T12:34:35.303Z,3292.00
2024-03-05T12:35:35.176Z,3303.00
2024-03-05T12:36:35.153Z,3291.00
2024-03-05T12:37:35.195Z,3269.00
2024-03-05T12:38:35.201Z,3297.00
2024-03-05T12:39:35.127Z,3553.00
2024-03-05T12:40:35.161Z,3246.00
2024-03-05T12:41:35.117Z,3261.00
2024-03-05T12:42:35.115Z,3116.00
2024-03-05T12:43:35.133Z,3320.00
2024-03-05T12:44:35.091Z,3478.00
2024-03-05T12:45:35.089Z,3547.00
2024-03-05T12:46:35.061Z,3594.00
2024-03-05T12:47:35.137Z,3599.00
2024-03-05T12:48:35.029Z,3572.00
2024-03-05T12:49:35.037Z,3508.00
2024-03-05T12:50:35.040Z,3512.00
2024-03-05T12:51:35.017Z,3718.00
2024-03-05T12:52:35.044Z,3907.00
2024-03-05T12:53:35.004Z,4425.00
2024-03-05T12:54:34.971Z,4988.00
2024-03-05T12:55:34.990Z,5286.00
2024-03-05T12:56:34.963Z,5681.00
2024-03-05T12:57:35.013Z,5456.00
2024-03-05T12:58:34.977Z,4961.00
2024-03-05T12:59:34.939Z,4574.00
2024-03-05T13:00:34.915Z,4210.00
2024-03-05T13:01:34.965Z,4035.00
2024-03-05T13:02:34.918Z,3948.00
2024-03-05T13:03:34.885Z,3859.00
2024-03-05T13:04:35.011Z,3826.00
2024-03-05T13:05:34.917Z,3836.00
2024-03-05T13:06:34.865Z,3657.00
2024-03-05T13:07:34.875Z,3750.00
2024-03-05T13:08:34.842Z,3807.00
2024-03-05T13:09:34.810Z,3813.00
2024-03-05T13:10:34.865Z,3708.00
2024-03-05T13:11:34.871Z,3606.00
2024-03-05T13:12:35.046Z,3563.00
2024-03-05T13:13:34.809Z,3651.00
2024-03-05T13:14:34.767Z,3702.00
2024-03-05T13:15:34.771Z,3672.00
2024-03-05T13:16:34.770Z,3667.00
2024-03-05T13:17:34.825Z,3659.00
2024-03-05T13:18:34.728Z,3624.00
2024-03-05T13:19:34.805Z,3544.00
2024-03-05T13:20:34.763Z,3426.00
2024-03-05T13:21:34.696Z,3388.00
2024-03-05T13:22:34.750Z,3409.00
2024-03-05T13:23:34.659Z,3425.00
2024-03-05T13:24:34.654Z,3433.00
2024-03-05T13:25:34.673Z,3482.00
2024-03-05T13:26:34.654Z,3644.00
2024-03-05T13:27:34.662Z,3597.00
2024-03-05T13:28:34.641Z,3448.00
2024-03-05T13:29:34.629Z,3464.00
2024-03-05T13:30:34.604Z,3610.00
2024-03-05T13:31:34.637Z,3591.00
2024-03-05T13:32:34.597Z,3584.00
2024-03-05T13:33:34.556Z,3619.00
2024-03-05T13:34:34.608Z,3654.00
2024-03-05T13:35:34.565Z,3677.00
2024-03-05T13:36:34.525Z,3654.00
2024-03-05T13:37:34.533Z,3531.00
2024-03-05T13:38:34.538Z,3401.00
2024-03-05T13:39:34.495Z,3348.00
2024-03-05T13:40:34.729Z,3461.00
2024-03-05T13:41:34.456Z,3676.00
2024-03-05T13:42:34.476Z,3849.00
2024-03-05T13:43:34.448Z,3892.00
2024-03-05T13:44:34.451Z,3958.00
2024-03-05T13:45:34.427Z,4146.00
2024-03-05T13:46:34.620Z,4205.00
2024-03-05T13:47:34.507Z,4135.00
2024-03-05T13:48:34.746Z,4129.00
2024-03-05T13:49:34.412Z,4225.00
2024-03-05T13:50:34.399Z,4353.00
2024-03-05T13:51:34.626Z,4432.00
2024-03-05T13:52:34.426Z,4416.00
2024-03-05T13:53:34.344Z,4463.00
2024-03-05T13:54:34.350Z,4626.00
2024-03-05T13:55:34.433Z,4388.00
2024-03-05T13:56:34.353Z,4236.00
2024-03-05T13:57:34.292Z,4086.00
2024-03-05T13:58:34.319Z,3976.00
2024-03-05T13:59:34.325Z,3884.00